Time;durP1;ratioP1;P1;durP2;ratioP2;P2;SDS_P1;SDS_P2;PMS_P1;PMS_P2;Temp;Humidity;BMP_temperature;BMP_pressure;BME280_temperature;BME280_humidity;BME280_pressure;Samples;Min_cycle;Max_cycle;Signal;HPM_P1;HPM_P2
2022/10/03 00:06:11;;;;;;;0.17;0.17;;;;;;;16.35;60.38;100375.09;18496454;32;20130;-55
2022/10/03 00:16:18;;;;;;;0.28;0.28;;;;;;;16.52;60.19;100379.06;18496346;32;20128;-55
2022/10/03 00:26:27;;;;;;;0.20;0.20;;;;;;;16.30;60.64;100412.09;18496459;32;20093;-55
2022/10/03 00:36:36;;;;;;;0.20;0.20;;;;;;;16.21;60.80;100404.44;18495045;32;20092;-56
2022/10/03 00:46:58;;;;;;;0.30;0.30;;;;;;;16.46;59.85;100398.53;18494668;32;20088;-55
2022/10/03 00:57:19;;;;;;;0.35;0.35;;;;;;;16.30;60.22;100398.06;18494066;32;20100;-55
2022/10/03 01:07:47;;;;;;;0.40;0.40;;;;;;;16.19;60.13;100404.47;18493496;32;20496;-56
2022/10/03 01:18:04;;;;;;;0.30;0.30;;;;;;;15.88;61.54;100394.69;18494581;32;20472;-55
2022/10/03 01:39:07;;;;;;;0.37;0.37;;;;;;;15.85;60.56;100405.31;18330270;32;20169;-55
2022/10/03 01:49:17;;;;;;;0.40;0.40;;;;;;;15.68;60.17;100395.16;18500401;32;20092;-55
2022/10/03 01:59:25;;;;;;;0.35;0.35;;;;;;;15.83;59.94;100401.81;18501076;32;20093;-55
2022/10/03 02:09:35;;;;;;;0.40;0.40;;;;;;;15.63;60.71;100418.94;18499275;32;20097;-55
2022/10/03 02:19:47;;;;;;;0.45;0.45;;;;;;;15.84;60.24;100424.63;18499475;32;20127;-55
2022/10/03 02:30:11;;;;;;;0.35;0.35;;;;;;;15.91;59.83;100435.91;18498312;32;20433;-56
2022/10/03 02:40:48;;;;;;;0.40;0.40;;;;;;;15.95;59.49;100437.53;18499310;32;20108;-55
2022/10/03 02:51:14;;;;;;;1.58;1.48;;;;;;;15.80;60.06;100442.25;18486751;32;20471;-56
2022/10/03 03:01:43;;;;;;;0.30;0.30;;;;;;;15.77;60.42;100449.34;18498249;32;20111;-56
2022/10/03 03:12:16;;;;;;;0.37;0.37;;;;;;;15.83;60.38;100462.34;18498048;32;20440;-56
2022/10/03 03:22:40;;;;;;;0.40;0.40;;;;;;;15.73;60.44;100474.87;18295331;32;20136;-56
2022/10/03 03:32:53;;;;;;;0.30;0.30;;;;;;;15.80;60.33;100480.84;18316797;32;20077;-56
2022/10/03 03:43:10;;;;;;;0.40;0.40;;;;;;;15.85;60.09;100488.66;18495552;32;20101;-56
2022/10/03 03:53:40;;;;;;;0.30;0.30;;;;;;;15.46;60.87;100476.31;18497478;32;20096;-56
2022/10/03 04:03:50;;;;;;;0.30;0.30;;;;;;;15.36;61.58;100484.41;18496307;32;20437;-56
2022/10/03 04:14:24;;;;;;;0.40;0.40;;;;;;;15.31;61.29;100481.03;18497241;32;20085;-55
2022/10/03 04:24:42;;;;;;;0.32;0.32;;;;;;;15.40;60.44;100467.69;18487928;32;20109;-56
2022/10/03 04:35:02;;;;;;;0.35;0.35;;;;;;;15.40;60.30;100480.84;18495424;32;20084;-55
2022/10/03 04:45:16;;;;;;;0.30;0.30;;;;;;;15.16;61.09;100482.19;18495106;32;20088;-56
2022/10/03 04:55:28;;;;;;;0.35;0.35;;;;;;;15.14;61.27;100509.41;18493759;32;20089;-56
2022/10/03 05:05:48;;;;;;;0.37;0.37;;;;;;;15.31;60.49;100520.47;18494968;32;20136;-56
2022/10/03 05:15:56;;;;;;;0.40;0.40;;;;;;;15.16;61.03;100526.03;18493835;32;20096;-58
2022/10/03 05:26:06;;;;;;;0.40;0.40;;;;;;;15.24;60.99;100553.03;18478195;32;20129;-58
2022/10/03 05:36:35;;;;;;;0.30;0.30;;;;;;;15.51;60.17;100541.13;18492627;32;20371;-58
2022/10/03 05:46:56;;;;;;;0.25;0.25;;;;;;;15.72;59.97;100538.06;18491333;32;20097;-58
2022/10/03 05:57:34;;;;;;;0.20;0.20;;;;;;;15.94;58.36;100546.38;18489796;32;20538;-58
2022/10/03 06:07:46;;;;;;;0.28;0.28;;;;;;;15.91;58.02;100551.72;18493146;32;20107;-58
2022/10/03 06:17:57;;;;;;;0.30;0.30;;;;;;;16.36;56.14;100548.06;18497155;32;20451;-58
2022/10/03 06:28:37;;;;;;;0.77;0.77;;;;;;;16.48;55.46;100568.84;18498729;32;20101;-56
2022/10/03 06:39:17;;;;;;;0.20;0.20;;;;;;;16.40;55.17;100570.78;18498239;32;20375;-56
2022/10/03 06:49:30;;;;;;;0.35;0.35;;;;;;;16.34;55.91;100578.84;18498453;32;20107;-56
2022/10/03 06:59:54;;;;;;;0.30;0.30;;;;;;;16.68;54.88;100587.72;18263857;32;20601;-58
2022/10/03 07:10:13;;;;;;;0.25;0.25;;;;;;;17.63;51.40;100607.22;18304265;32;20395;-60
2022/10/03 07:20:52;;;;;;;0.20;0.20;;;;;;;17.57;51.58;100612.66;18494854;32;20149;-59
2022/10/03 07:31:07;;;;;;;0.20;0.20;;;;;;;17.88;50.36;100617.09;18305033;32;20545;-59
2022/10/03 07:41:48;;;;;;;0.30;0.30;;;;;;;18.25;50.06;100618.62;18292555;32;20136;-59
2022/10/03 07:52:04;;;;;;;0.20;0.20;;;;;;;18.01;48.93;100622.84;18104032;32;20154;-59
2022/10/03 08:02:22;;;;;;;0.20;0.20;;;;;;;17.41;49.88;100628.06;18162798;32;20690;-57
2022/10/03 08:12:55;;;;;;;0.20;0.20;;;;;;;17.45;51.06;100637.63;18292612;32;20292;-57
2022/10/03 08:23:11;;;;;;;0.20;0.20;;;;;;;18.05;48.99;100619.25;18164429;32;20170;-57
2022/10/03 08:33:37;;;;;;;0.30;0.30;;;;;;;17.97;48.79;100624.72;18289295;32;20132;-57
2022/10/03 08:44:10;;;;;;;0.20;0.20;;;;;;;18.35;47.59;100640.37;18259283;32;20474;-56
2022/10/03 08:54:54;;;;;;;0.20;0.20;;;;;;;18.20;47.27;100639.06;18170181;32;20128;-58
2022/10/03 09:05:28;;;;;;;0.30;0.30;;;;;;;18.20;47.73;100636.41;18090656;32;20451;-56
2022/10/03 09:16:19;;;;;;;0.20;0.20;;;;;;;18.70;45.91;100632.22;18192270;32;20136;-55
2022/10/03 09:26:55;;;;;;;0.20;0.20;;;;;;;19.01;44.99;100651.56;18279034;32;20141;-55
2022/10/03 09:37:30;;;;;;;0.65;0.32;;;;;;;17.99;46.67;100643.16;18403384;32;20136;-56
2022/10/03 09:48:28;;;;;;;1.12;0.40;;;;;;;18.04;47.03;100649.22;18484344;32;20100;-59
2022/10/03 09:58:55;;;;;;;0.20;0.20;;;;;;;18.15;47.17;100635.69;18283286;32;20374;-57
2022/10/03 10:09:31;;;;;;;0.20;0.20;;;;;;;18.67;46.59;100641.13;18295528;32;20485;-57
2022/10/03 10:19:43;;;;;;;0.25;0.25;;;;;;;18.27;44.65;100650.31;18280420;32;20114;-57
2022/10/03 10:30:04;;;;;;;0.20;0.20;;;;;;;18.99;44.32;100631.28;18373075;32;20480;-57
2022/10/03 10:40:57;;;;;;;0.20;0.20;;;;;;;18.65;45.68;100644.75;18295835;32;20139;-57
2022/10/03 10:51:38;;;;;;;0.40;0.40;;;;;;;18.68;45.92;100640.19;18094181;32;20115;-57
2022/10/03 11:12:49;;;;;;;0.20;0.20;;;;;;;18.97;45.92;100629.59;18602938;31;207086;-57
2022/10/03 11:23:20;;;;;;;0.20;0.20;;;;;;;18.97;45.92;100629.59;18264121;32;20175;-57
2022/10/03 11:33:47;;;;;;;0.10;0.10;;;;;;;18.11;48.28;100634.06;18276124;32;20118;-57
2022/10/03 11:44:14;;;;;;;0.30;0.30;;;;;;;18.27;49.30;100645.03;18275970;32;20110;-57
2022/10/03 11:54:24;;;;;;;0.25;0.25;;;;;;;18.28;48.19;100649.38;18180586;32;20122;-58
2022/10/03 12:04:49;;;;;;;0.20;0.20;;;;;;;17.46;53.56;100684.25;18408765;32;20144;-57
2022/10/03 12:14:52;;;;;;;0.10;0.10;;;;;;;17.92;53.47;100641.63;18468081;32;20370;-57
2022/10/03 12:25:02;;;;;;;0.20;0.20;;;;;;;18.50;51.49;100646.09;18432289;32;20093;-58
2022/10/03 12:35:19;;;;;;;0.20;0.20;;;;;;;18.54;50.26;100645.09;18493752;32;20093;-57
2022/10/03 12:45:29;;;;;;;0.20;0.20;;;;;;;18.58;48.10;100652.88;18497014;32;20392;-57
2022/10/03 12:55:33;;;;;;;0.20;0.20;;;;;;;18.44;47.19;100631.28;18498379;32;20103;-57
2022/10/03 13:05:54;;;;;;;0.20;0.20;;;;;;;18.25;47.50;100615.16;18495385;32;20145;-58
2022/10/03 13:16:19;;;;;;;0.20;0.20;;;;;;;18.51;47.06;100624.88;18494751;32;20516;-57
2022/10/03 13:26:32;;;;;;;0.10;0.10;;;;;;;18.44;45.06;100618.94;18495920;32;20084;-58
2022/10/03 13:36:39;;;;;;;0.20;0.20;;;;;;;18.69;45.14;100614.62;18497009;32;20634;-58
2022/10/03 13:46:51;;;;;;;0.20;0.20;;;;;;;18.64;46.52;100598.94;18493809;32;20081;-58
2022/10/03 13:56:58;;;;;;;0.10;0.10;;;;;;;18.70;45.94;100603.16;18497206;32;20088;-57
2022/10/03 14:07:09;;;;;;;0.20;0.20;;;;;;;19.52;44.62;100621.53;18496826;32;20110;-58
2022/10/03 14:17:17;;;;;;;0.20;0.20;;;;;;;19.48;43.00;100614.62;18497150;32;20145;-58
2022/10/03 14:27:36;;;;;;;0.10;0.10;;;;;;;19.33;43.69;100588.69;18494940;32;20157;-58
2022/10/03 14:37:44;;;;;;;0.20;0.20;;;;;;;18.75;45.02;100592.41;18494061;32;20166;-58
2022/10/03 14:47:51;;;;;;;0.20;0.20;;;;;;;18.64;46.06;100596.28;18486484;32;20420;-58
2022/10/03 14:57:57;;;;;;;0.20;0.20;;;;;;;18.58;45.63;100596.47;18492726;32;20088;-57
2022/10/03 15:08:16;;;;;;;0.20;0.20;;;;;;;18.42;45.17;100618.12;18493536;32;20385;-57
2022/10/03 15:18:22;;;;;;;0.30;0.30;;;;;;;17.77;45.55;100605.97;18494529;32;20114;-57
2022/10/03 15:28:29;;;;;;;0.30;0.30;;;;;;;17.71;45.74;100612.28;18491820;32;20081;-57
2022/10/03 15:38:35;;;;;;;0.20;0.20;;;;;;;17.71;46.90;100609.63;18491265;32;20376;-57
2022/10/03 15:48:41;;;;;;;0.20;0.20;;;;;;;17.67;47.49;100648.47;18491970;32;20088;-58
2022/10/03 15:58:51;;;;;;;0.30;0.30;;;;;;;17.36;49.21;100635.22;18500206;32;20403;-57
2022/10/03 16:09:02;;;;;;;0.30;0.30;;;;;;;17.35;49.16;100629.09;18498899;32;20186;-58
2022/10/03 16:19:25;;;;;;;0.20;0.20;;;;;;;17.17;49.18;100641.03;18500346;32;20105;-57
2022/10/03 16:29:31;;;;;;;0.32;0.32;;;;;;;17.01;48.57;100633.50;18439691;32;20100;-57
2022/10/03 16:39:36;;;;;;;0.50;0.50;;;;;;;16.99;48.71;100651.09;18465571;32;20084;-58
2022/10/03 17:00:07;;;;;;;0.30;0.30;;;;;;;16.76;49.21;100656.94;18490091;32;20100;-57
2022/10/03 17:10:29;;;;;;;0.30;0.30;;;;;;;16.82;49.12;100653.28;18477051;32;20100;-58
2022/10/03 17:20:40;;;;;;;0.30;0.30;;;;;;;16.41;50.52;100677.94;18431328;32;20107;-58
2022/10/03 17:30:48;;;;;;;0.40;0.40;;;;;;;16.44;50.60;100655.91;18432104;32;20097;-58
2022/10/03 17:41:00;;;;;;;0.20;0.20;;;;;;;16.47;50.48;100672.50;18489682;32;20132;-58
2022/10/03 17:51:39;;;;;;;0.30;0.30;;;;;;;16.37;50.26;100682.41;18495646;32;20113;-58
2022/10/03 18:01:45;;;;;;;0.20;0.20;;;;;;;16.28;50.23;100689.62;18257230;32;20230;-58
2022/10/03 18:11:50;;;;;;;0.30;0.30;;;;;;;16.22;50.19;100703.78;18243012;32;20132;-58
2022/10/03 18:22:01;;;;;;;0.30;0.30;;;;;;;16.25;50.29;100729.19;18215045;32;20110;-58
2022/10/03 18:32:12;;;;;;;0.30;0.30;;;;;;;16.09;51.09;100730.38;18303442;32;20100;-58
2022/10/03 18:42:17;;;;;;;0.68;0.57;;;;;;;15.94;51.33;100750.00;18492041;32;20100;-58
2022/10/03 18:52:24;;;;;;;0.30;0.30;;;;;;;16.26;50.99;100757.28;18492674;32;20165;-58
2022/10/03 19:02:33;;;;;;;0.30;0.30;;;;;;;16.01;51.62;100753.38;18486261;32;20108;-58
2022/10/03 19:12:40;;;;;;;0.40;0.40;;;;;;;16.05;51.63;100756.81;18480768;32;20093;-58
2022/10/03 19:22:56;;;;;;;0.30;0.30;;;;;;;15.80;52.35;100746.69;18489585;32;20096;-58
2022/10/03 19:33:03;;;;;;;0.30;0.30;;;;;;;15.61;52.75;100744.41;18489559;32;20471;-58
2022/10/03 19:43:34;;;;;;;0.28;0.28;;;;;;;15.65;53.29;100746.09;18488046;32;20503;-58
2022/10/03 19:53:43;;;;;;;0.30;0.30;;;;;;;15.49;53.99;100736.72;18496523;32;20105;-58
2022/10/03 20:03:51;;;;;;;0.28;0.28;;;;;;;15.47;53.56;100743.78;18495602;32;20100;-58
2022/10/03 20:13:57;;;;;;;0.30;0.30;;;;;;;15.35;53.43;100764.12;18495458;32;20115;-57
2022/10/03 20:24:01;;;;;;;0.20;0.20;;;;;;;15.56;51.83;100775.19;18498430;32;20233;-58
2022/10/03 20:34:11;;;;;;;0.30;0.30;;;;;;;15.72;51.26;100780.19;18497807;32;20441;-58
2022/10/03 20:44:18;;;;;;;0.30;0.30;;;;;;;15.57;51.57;100786.56;18497272;32;20103;-58
2022/10/03 20:54:24;;;;;;;0.28;0.28;;;;;;;15.41;51.38;100789.44;18498097;32;20100;-58
2022/10/03 21:04:31;;;;;;;0.30;0.30;;;;;;;15.52;51.32;100781.38;18497573;32;20092;-58
2022/10/03 21:14:35;;;;;;;0.30;0.30;;;;;;;15.46;51.41;100766.56;18497831;32;20120;-58
2022/10/03 21:24:44;;;;;;;0.30;0.30;;;;;;;15.33;52.00;100775.56;18498478;32;20372;-57
2022/10/03 21:34:53;;;;;;;0.20;0.20;;;;;;;15.21;52.08;100785.38;18490687;32;20093;-58
2022/10/03 21:45:09;;;;;;;0.47;0.47;;;;;;;15.47;51.61;100810.41;18494548;32;20089;-58
2022/10/03 21:55:41;;;;;;;0.30;0.30;;;;;;;15.20;52.58;100819.59;18493112;32;20092;-58
2022/10/03 22:06:00;;;;;;;0.40;0.40;;;;;;;15.16;52.11;100815.25;18493607;32;20088;-58
2022/10/03 22:16:09;;;;;;;0.30;0.30;;;;;;;15.11;52.89;100818.84;18493685;32;20125;-58
2022/10/03 22:26:17;;;;;;;0.30;0.30;;;;;;;15.28;52.15;100804.59;18493641;32;20087;-58
2022/10/03 22:36:22;;;;;;;0.30;0.30;;;;;;;15.27;52.06;100792.31;18493189;32;20133;-58
2022/10/03 22:46:27;;;;;;;0.30;0.30;;;;;;;14.97;52.42;100782.22;18492448;32;20415;-58
2022/10/03 22:56:35;;;;;;;0.30;0.30;;;;;;;15.25;52.25;100796.72;18492094;32;20104;-58
2022/10/03 23:06:57;;;;;;;0.50;0.50;;;;;;;15.30;51.92;100801.91;18491030;32;20096;-58
2022/10/03 23:17:12;;;;;;;0.33;0.33;;;;;;;15.36;51.96;100810.56;18490989;32;20096;-58
2022/10/03 23:27:39;;;;;;;0.30;0.30;;;;;;;15.06;52.37;100793.50;18490204;32;20185;-58
2022/10/03 23:37:45;;;;;;;0.30;0.30;;;;;;;15.09;52.12;100773.31;18489879;32;20105;-58
2022/10/03 23:47:54;;;;;;;0.40;0.40;;;;;;;15.06;52.13;100785.63;18488749;32;20132;-58
2022/10/03 23:57:59;;;;;;;0.30;0.30;;;;;;;15.04;52.75;100782.16;18488910;32;20169;-58
